createdAt,value
2023-04-12T00:00:11.223Z,9.70
2023-04-12T00:02:40.494Z,9.72
2023-04-12T00:05:11.255Z,9.78
2023-04-12T00:07:39.617Z,9.80
2023-04-12T00:10:09.471Z,9.83
2023-04-12T00:12:37.807Z,9.87
2023-04-12T00:15:08.104Z,9.91
2023-04-12T00:17:36.704Z,9.93
2023-04-12T00:20:11.747Z,9.96
2023-04-12T00:22:43.167Z,9.98
2023-04-12T00:25:11.295Z,10.10
2023-04-12T00:27:39.631Z,10.06
2023-04-12T00:30:08.596Z,10.13
2023-04-12T00:32:36.991Z,10.16
2023-04-12T00:35:05.716Z,10.20
2023-04-12T00:37:34.155Z,10.23
2023-04-12T00:40:03.138Z,10.25
2023-04-12T00:42:31.440Z,10.27
2023-04-12T00:45:01.468Z,10.30
2023-04-12T00:47:29.770Z,10.34
2023-04-12T00:49:58.928Z,10.36
2023-04-12T00:52:34.162Z,10.36
2023-04-12T00:55:05.442Z,10.40
2023-04-12T00:57:39.851Z,10.40
2023-04-12T01:00:12.346Z,10.45
2023-04-12T01:02:51.149Z,10.47
2023-04-12T01:05:23.471Z,10.48
2023-04-12T01:08:21.598Z,10.56
2023-04-12T01:11:12.199Z,10.61
2023-04-12T01:14:15.034Z,10.62
2023-04-12T01:16:55.101Z,10.65
2023-04-12T01:19:57.696Z,10.68
2023-04-12T01:23:26.303Z,10.74
2023-04-12T01:26:33.551Z,10.71
2023-04-12T01:29:09.798Z,10.76
2023-04-12T01:31:42.006Z,10.78
2023-04-12T01:34:12.323Z,10.81
2023-04-12T01:36:42.044Z,10.83
2023-04-12T01:39:10.472Z,10.86
2023-04-12T01:41:45.361Z,10.84
2023-04-12T01:44:15.671Z,10.88
2023-04-12T01:46:48.206Z,10.92
2023-04-12T01:49:16.774Z,10.93
2023-04-12T01:52:12.652Z,10.93
2023-04-12T01:54:43.552Z,10.98
2023-04-12T01:57:12.047Z,11.00
2023-04-12T01:59:44.714Z,11.02
2023-04-12T02:02:13.973Z,11.06
2023-04-12T02:04:43.438Z,11.08
2023-04-12T02:07:13.582Z,11.11
2023-04-12T02:09:41.933Z,11.13
2023-04-12T02:12:10.175Z,11.14
2023-04-12T02:14:38.588Z,11.12
2023-04-12T02:17:08.772Z,11.15
2023-04-12T02:19:38.455Z,11.19
2023-04-12T02:22:08.264Z,11.20
2023-04-12T02:24:36.831Z,11.18
2023-04-12T02:27:05.494Z,11.21
2023-04-12T02:29:33.761Z,11.22
2023-04-12T02:32:02.079Z,11.23
2023-04-12T02:34:34.315Z,11.22
2023-04-12T02:37:13.685Z,11.24
2023-04-12T02:39:41.910Z,11.26
2023-04-12T02:42:11.272Z,11.28
2023-04-12T02:44:41.942Z,11.30
2023-04-12T02:47:14.744Z,11.31
2023-04-12T02:49:47.728Z,11.31
2023-04-12T02:52:18.557Z,11.33
2023-04-12T02:55:06.739Z,11.37
2023-04-12T02:57:35.225Z,11.41
2023-04-12T03:00:12.261Z,11.39
2023-04-12T03:02:44.733Z,11.38
2023-04-12T03:05:20.527Z,11.37
2023-04-12T03:07:49.218Z,11.37
2023-04-12T03:10:21.786Z,11.33
2023-04-12T03:12:58.079Z,11.45
2023-04-12T03:15:34.013Z,11.52
2023-04-12T03:18:03.073Z,11.49
2023-04-12T03:20:39.010Z,11.25
2023-04-12T03:23:11.338Z,11.39
2023-04-12T03:25:44.876Z,11.52
2023-04-12T03:28:30.622Z,11.63
2023-04-12T03:31:00.554Z,11.60
2023-04-12T03:33:39.170Z,11.94
2023-04-12T03:36:10.412Z,11.85
2023-04-12T03:38:38.740Z,11.80
2023-04-12T03:41:10.915Z,12.06
2023-04-12T03:43:40.645Z,12.26
2023-04-12T03:46:17.987Z,12.37
2023-04-12T03:48:52.104Z,12.32
2023-04-12T03:51:26.616Z,12.25
2023-04-12T03:54:02.642Z,12.46
2023-04-12T03:56:35.584Z,12.54
2023-04-12T03:59:08.677Z,12.43
2023-04-12T04:01:38.989Z,12.54
2023-04-12T04:04:08.023Z,12.50
2023-04-12T04:06:36.533Z,12.57
2023-04-12T04:09:05.598Z,12.56
2023-04-12T04:11:37.737Z,12.47
2023-04-12T04:14:08.889Z,12.37
2023-04-12T04:16:37.582Z,12.55
2023-04-12T04:19:08.189Z,12.56
2023-04-12T04:21:36.581Z,12.55
2023-04-12T04:24:06.946Z,12.48
2023-04-12T04:26:39.673Z,12.52
2023-04-12T04:29:23.687Z,12.47
2023-04-12T04:31:53.127Z,12.34
2023-04-12T04:34:23.175Z,12.43
2023-04-12T04:36:54.072Z,12.43
2023-04-12T04:39:27.380Z,12.19
2023-04-12T04:41:57.473Z,12.36
2023-04-12T04:44:48.315Z,12.40
2023-04-12T04:47:17.695Z,12.39
2023-04-12T04:49:48.098Z,12.33
2023-04-12T04:52:24.641Z,12.38
2023-04-12T04:54:57.662Z,12.52
2023-04-12T04:57:28.302Z,12.53
2023-04-12T04:59:58.172Z,12.58
2023-04-12T05:02:26.672Z,12.57
2023-04-12T05:04:56.419Z,12.63
2023-04-12T05:07:30.510Z,12.66
2023-04-12T05:09:59.872Z,12.72
2023-04-12T05:12:29.350Z,12.69
2023-04-12T05:15:11.200Z,12.74
2023-04-12T05:17:40.832Z,12.83
2023-04-12T05:20:13.051Z,12.95
2023-04-12T05:22:41.437Z,12.91
2023-04-12T05:25:10.596Z,13.00
2023-04-12T05:27:47.347Z,12.88
2023-04-12T05:30:18.628Z,13.09
2023-04-12T05:32:47.515Z,13.13
2023-04-12T05:35:18.797Z,13.25
2023-04-12T05:37:49.087Z,13.24
2023-04-12T05:40:17.295Z,13.23
2023-04-12T05:42:45.714Z,13.23
2023-04-12T05:45:14.078Z,13.18
2023-04-12T05:47:45.027Z,13.22
2023-04-12T05:50:13.388Z,13.29
2023-04-12T05:52:42.308Z,13.37
2023-04-12T05:55:10.842Z,13.44
2023-04-12T05:57:44.061Z,13.61
2023-04-12T06:00:17.045Z,13.76
2023-04-12T06:02:48.205Z,13.74
2023-04-12T06:05:18.366Z,13.85
2023-04-12T06:07:48.081Z,13.96
2023-04-12T06:10:17.250Z,13.92
2023-04-12T06:12:48.603Z,13.92
2023-04-12T06:15:17.084Z,14.09
2023-04-12T06:17:45.935Z,14.16
2023-04-12T06:20:14.708Z,14.11
2023-04-12T06:22:43.081Z,14.31
2023-04-12T06:25:12.495Z,14.52
2023-04-12T06:27:40.822Z,14.40
2023-04-12T06:30:09.786Z,14.27
2023-04-12T06:32:38.654Z,14.15
2023-04-12T06:35:08.172Z,14.38
2023-04-12T06:37:36.552Z,14.43
2023-04-12T06:40:05.496Z,14.55
2023-04-12T06:42:33.870Z,14.50
2023-04-12T06:45:02.202Z,14.14
2023-04-12T06:47:32.326Z,14.11
2023-04-12T06:50:00.607Z,14.56
2023-04-12T06:52:29.205Z,14.67
2023-04-12T06:54:57.479Z,14.55
2023-04-12T06:57:26.546Z,14.26
2023-04-12T06:59:54.966Z,14.50
2023-04-12T07:02:25.454Z,14.64
2023-04-12T07:04:54.559Z,14.72
2023-04-12T07:07:22.921Z,14.54
2023-04-12T07:09:52.303Z,14.40
2023-04-12T07:12:21.063Z,14.45
2023-04-12T07:14:49.455Z,14.44
2023-04-12T07:17:17.693Z,14.49
2023-04-12T07:19:52.113Z,14.56
2023-04-12T07:22:21.470Z,14.51
2023-04-12T07:24:50.704Z,14.65
2023-04-12T07:27:18.912Z,14.61
2023-04-12T07:29:47.127Z,14.62
2023-04-12T07:32:15.428Z,14.56
2023-04-12T07:34:43.798Z,14.62
2023-04-12T07:37:13.050Z,14.59
2023-04-12T07:39:41.600Z,14.40
2023-04-12T07:42:09.981Z,14.56
2023-04-12T07:44:38.960Z,14.70
2023-04-12T07:47:09.397Z,14.48
2023-04-12T07:49:37.811Z,14.79
2023-04-12T07:52:06.169Z,14.97
2023-04-12T07:54:34.420Z,15.19
2023-04-12T07:57:03.881Z,15.10
2023-04-12T07:59:37.330Z,15.12
2023-04-12T08:02:11.213Z,15.24
2023-04-12T08:04:41.830Z,15.27
2023-04-12T08:07:10.166Z,15.55
2023-04-12T08:09:38.371Z,15.24
2023-04-12T08:12:08.185Z,15.51
2023-04-12T08:14:38.552Z,15.67
2023-04-12T08:17:08.023Z,15.64
2023-04-12T08:19:37.004Z,15.38
2023-04-12T08:22:08.237Z,14.96
2023-04-12T08:25:01.739Z,15.16
2023-04-12T08:27:30.628Z,15.11
2023-04-12T08:29:58.823Z,15.39
2023-04-12T08:32:27.150Z,15.26
2023-04-12T08:34:55.918Z,15.37
2023-04-12T08:37:24.238Z,15.74
2023-04-12T08:39:52.503Z,15.94
2023-04-12T08:42:23.255Z,15.90
2023-04-12T08:44:53.261Z,15.83
2023-04-12T08:47:21.890Z,16.01
2023-04-12T08:49:50.329Z,16.08
2023-04-12T08:52:43.569Z,16.45
2023-04-12T08:55:12.917Z,16.34
2023-04-12T08:57:46.677Z,16.28
2023-04-12T09:00:34.178Z,16.38
2023-04-12T09:03:07.342Z,16.13
2023-04-12T09:06:09.874Z,15.84
2023-04-12T09:08:50.949Z,15.69
2023-04-12T09:11:28.661Z,15.12
2023-04-12T09:13:59.768Z,15.65
2023-04-12T09:16:38.749Z,15.51
2023-04-12T09:19:07.755Z,15.52
2023-04-12T09:21:37.244Z,15.22
2023-04-12T09:24:30.383Z,15.00
2023-04-12T09:27:06.271Z,15.17
2023-04-12T09:29:35.726Z,14.94
2023-04-12T09:32:06.856Z,14.93
2023-04-12T09:34:36.091Z,15.15
2023-04-12T09:37:16.162Z,14.79
2023-04-12T09:39:44.575Z,15.01
2023-04-12T09:42:29.928Z,15.17
2023-04-12T09:45:28.030Z,15.32
2023-04-12T09:47:58.834Z,14.99
2023-04-12T09:50:59.091Z,15.35
2023-04-12T09:53:27.515Z,15.21
2023-04-12T09:55:56.943Z,15.40
2023-04-12T09:58:26.313Z,15.12
2023-04-12T10:01:21.739Z,15.09
2023-04-12T10:03:53.904Z,15.08
2023-04-12T10:06:22.858Z,14.76
2023-04-12T10:08:56.441Z,14.40
2023-04-12T10:11:50.531Z,14.96
2023-04-12T10:14:20.452Z,14.87
2023-04-12T10:16:49.930Z,14.97
2023-04-12T10:19:30.556Z,14.79
2023-04-12T10:22:23.397Z,14.46
2023-04-12T10:24:53.897Z,14.90
2023-04-12T10:27:27.286Z,15.05
2023-04-12T10:30:24.300Z,15.06
2023-04-12T10:33:24.927Z,15.63
2023-04-12T10:36:08.798Z,15.93
2023-04-12T10:38:47.824Z,16.25
2023-04-12T10:41:22.794Z,16.63
2023-04-12T10:43:51.969Z,16.53
2023-04-12T10:46:40.779Z,16.47
2023-04-12T10:49:13.799Z,16.88
2023-04-12T10:52:00.879Z,16.28
2023-04-12T10:54:36.557Z,16.33
2023-04-12T10:57:07.081Z,16.36
2023-04-12T10:59:55.545Z,16.24
2023-04-12T11:02:24.216Z,16.51
2023-04-12T11:05:24.192Z,16.55
2023-04-12T11:08:05.656Z,15.70
2023-04-12T11:11:20.086Z,15.91
2023-04-12T11:13:48.489Z,15.93
2023-04-12T11:16:16.942Z,15.83
2023-04-12T11:18:47.420Z,16.08
2023-04-12T11:21:16.113Z,16.20
2023-04-12T11:23:44.524Z,16.76
2023-04-12T11:26:12.857Z,17.26
2023-04-12T11:28:41.199Z,17.45
2023-04-12T11:31:09.692Z,17.49
2023-04-12T11:33:40.073Z,17.52
2023-04-12T11:36:14.360Z,17.12
2023-04-12T11:38:47.024Z,16.71
2023-04-12T11:41:16.854Z,17.04
2023-04-12T11:43:49.506Z,16.85
2023-04-12T11:46:21.358Z,16.69
2023-04-12T11:48:53.194Z,16.31
2023-04-12T11:51:33.742Z,16.31
2023-04-12T11:54:08.978Z,16.44
2023-04-12T11:56:37.835Z,16.34
2023-04-12T11:59:08.400Z,16.19
2023-04-12T12:01:37.756Z,15.92
2023-04-12T12:04:07.340Z,15.90
2023-04-12T12:06:36.446Z,16.09
2023-04-12T12:09:06.426Z,16.12
2023-04-12T12:11:34.948Z,16.11
2023-04-12T12:14:03.422Z,16.17
2023-04-12T12:16:31.931Z,15.86
2023-04-12T12:19:05.462Z,15.89
2023-04-12T12:21:37.988Z,16.24
2023-04-12T12:24:06.443Z,16.27
2023-04-12T12:26:37.167Z,16.31
2023-04-12T12:29:19.415Z,16.61
2023-04-12T12:31:49.216Z,16.50
2023-04-12T12:34:19.476Z,16.46
2023-04-12T12:36:58.025Z,16.68
2023-04-12T12:39:28.739Z,16.88
2023-04-12T12:42:00.143Z,16.94
2023-04-12T12:44:29.632Z,17.57
2023-04-12T12:47:10.187Z,18.08
2023-04-12T12:49:43.490Z,18.46
2023-04-12T12:52:11.902Z,18.35
2023-04-12T12:54:42.396Z,18.06
2023-04-12T12:57:10.747Z,17.92
2023-04-12T12:59:39.013Z,18.18
2023-04-12T13:02:08.672Z,19.26
2023-04-12T13:04:38.247Z,19.76
2023-04-12T13:07:06.731Z,20.36
2023-04-12T13:09:35.013Z,20.76
2023-04-12T13:12:03.528Z,20.70
2023-04-12T13:14:36.553Z,20.54
2023-04-12T13:17:05.685Z,20.28
2023-04-12T13:19:37.011Z,19.69
2023-04-12T13:22:07.227Z,19.70
2023-04-12T13:24:38.772Z,19.87
2023-04-12T13:27:08.649Z,19.32
2023-04-12T13:29:38.971Z,19.52
2023-04-12T13:32:08.040Z,19.23
2023-04-12T13:34:37.641Z,18.91
2023-04-12T13:37:06.169Z,18.50
2023-04-12T13:39:35.239Z,17.80
2023-04-12T13:42:03.432Z,17.67
2023-04-12T13:44:31.676Z,18.02
2023-04-12T13:46:59.897Z,18.46
2023-04-12T13:49:28.285Z,19.20
2023-04-12T13:51:57.111Z,19.06
2023-04-12T13:54:25.975Z,19.65
2023-04-12T13:56:54.206Z,21.52
2023-04-12T13:59:22.424Z,22.37
2023-04-12T14:01:50.919Z,23.30
2023-04-12T14:04:19.244Z,23.89
2023-04-12T14:06:47.526Z,24.35
2023-04-12T14:09:30.838Z,24.47
2023-04-12T14:12:01.370Z,24.50
2023-04-12T14:14:29.749Z,25.01
2023-04-12T14:16:58.048Z,24.07
2023-04-12T14:19:28.180Z,25.06
2023-04-12T14:21:56.885Z,25.93
2023-04-12T14:24:26.475Z,25.82
2023-04-12T14:26:57.180Z,26.27
2023-04-12T14:29:24.928Z,25.16
2023-04-12T14:31:54.300Z,24.72
2023-04-12T14:34:22.594Z,24.14
2023-04-12T14:36:50.821Z,23.47
2023-04-12T14:39:20.583Z,23.26
2023-04-12T14:41:48.800Z,22.73
2023-04-12T14:44:19.498Z,22.71
2023-04-12T14:46:51.686Z,23.27
2023-04-12T14:49:19.926Z,23.00
2023-04-12T14:51:48.162Z,24.06
2023-04-12T14:54:16.635Z,23.91
2023-04-12T14:56:52.459Z,24.36
2023-04-12T14:59:23.307Z,26.83
2023-04-12T15:01:52.411Z,26.16
2023-04-12T15:04:21.364Z,25.18
2023-04-12T15:06:49.709Z,24.33
2023-04-12T15:09:18.788Z,23.67
2023-04-12T15:11:52.082Z,23.21
2023-04-12T15:14:21.082Z,22.79
2023-04-12T15:16:49.469Z,22.49
2023-04-12T15:19:21.971Z,21.86
2023-04-12T15:21:52.334Z,21.21
2023-04-12T15:24:22.367Z,20.45
2023-04-12T15:26:54.261Z,20.23
2023-04-12T15:29:23.904Z,19.77
2023-04-12T15:31:52.162Z,19.39
2023-04-12T15:34:23.103Z,19.38
2023-04-12T15:36:51.909Z,17.85
2023-04-12T15:39:20.421Z,16.44
2023-04-12T15:41:51.773Z,15.83
2023-04-12T15:44:20.093Z,15.86
2023-04-12T15:46:59.351Z,15.81
2023-04-12T15:49:36.109Z,15.34
2023-04-12T15:52:04.448Z,15.09
2023-04-12T15:54:32.750Z,14.69
2023-04-12T15:57:09.309Z,14.80
2023-04-12T15:59:39.821Z,14.86
2023-04-12T16:02:09.777Z,14.54
2023-04-12T16:04:39.080Z,14.27
2023-04-12T16:07:07.510Z,13.99
2023-04-12T16:09:38.501Z,13.84
2023-04-12T16:12:07.557Z,13.98
2023-04-12T16:14:36.908Z,13.88
2023-04-12T16:17:05.274Z,13.93
2023-04-12T16:19:33.549Z,13.51
2023-04-12T16:22:02.094Z,13.11
2023-04-12T16:24:30.370Z,13.00
2023-04-12T16:26:59.296Z,13.11
2023-04-12T16:29:27.490Z,12.86
2023-04-12T16:31:56.071Z,12.78
2023-04-12T16:34:24.417Z,12.44
2023-04-12T16:36:52.891Z,12.27
2023-04-12T16:39:21.401Z,12.41
2023-04-12T16:41:49.625Z,12.41
2023-04-12T16:44:18.770Z,12.76
2023-04-12T16:46:48.000Z,12.77
2023-04-12T16:49:19.020Z,12.82
2023-04-12T16:51:50.775Z,12.93
2023-04-12T16:54:20.228Z,12.87
2023-04-12T16:56:49.662Z,12.57
2023-04-12T16:59:20.639Z,12.90
2023-04-12T17:01:49.067Z,12.92
2023-04-12T17:04:18.501Z,12.89
2023-04-12T17:06:48.237Z,12.99
2023-04-12T17:09:19.694Z,12.98
2023-04-12T17:11:47.375Z,13.19
2023-04-12T17:14:16.595Z,13.17
2023-04-12T17:16:47.089Z,13.18
2023-04-12T17:19:20.924Z,13.29
2023-04-12T17:21:51.303Z,13.38
2023-04-12T17:24:25.444Z,13.30
2023-04-12T17:26:56.621Z,13.28
2023-04-12T17:29:25.562Z,12.92
2023-04-12T17:31:55.116Z,13.10
2023-04-12T17:34:24.162Z,13.00
2023-04-12T17:36:55.138Z,12.82
2023-04-12T17:39:23.376Z,12.95
2023-04-12T17:41:53.157Z,12.90
2023-04-12T17:44:21.505Z,12.84
2023-04-12T17:46:49.809Z,12.92
2023-04-12T17:49:18.305Z,12.82
2023-04-12T17:51:46.934Z,12.82
2023-04-12T17:54:15.405Z,12.68
2023-04-12T17:56:44.857Z,12.78
2023-04-12T17:59:13.671Z,12.61
2023-04-12T18:01:42.151Z,12.61
2023-04-12T18:04:11.244Z,12.36
2023-04-12T18:06:39.974Z,12.45
2023-04-12T18:09:15.882Z,12.37
2023-04-12T18:11:45.503Z,12.36
2023-04-12T18:14:16.535Z,12.41
2023-04-12T18:16:45.073Z,12.22
2023-04-12T18:19:15.624Z,12.33
2023-04-12T18:21:48.096Z,12.28
2023-04-12T18:24:17.251Z,12.28
2023-04-12T18:26:46.106Z,12.17
2023-04-12T18:29:17.528Z,11.84
2023-04-12T18:31:46.078Z,11.84
2023-04-12T18:34:18.774Z,11.87
2023-04-12T18:36:47.599Z,11.91
2023-04-12T18:39:16.571Z,11.98
2023-04-12T18:41:47.874Z,11.97
2023-04-12T18:44:19.127Z,11.88
2023-04-12T18:46:48.633Z,11.77
2023-04-12T18:49:17.205Z,11.73
2023-04-12T18:51:45.730Z,11.61
2023-04-12T18:54:22.915Z,11.62
2023-04-12T18:56:52.989Z,11.36
2023-04-12T18:59:22.044Z,11.43
2023-04-12T19:01:50.318Z,11.39
2023-04-12T19:04:18.613Z,11.25
2023-04-12T19:06:47.389Z,11.24
2023-04-12T19:09:15.923Z,11.14
2023-04-12T19:11:44.244Z,11.18
2023-04-12T19:14:12.952Z,11.06
2023-04-12T19:16:41.759Z,10.98
2023-04-12T19:19:17.304Z,10.88
2023-04-12T19:21:45.918Z,10.81
2023-04-12T19:24:14.394Z,10.61
2023-04-12T19:26:46.880Z,10.70
2023-04-12T19:29:15.786Z,10.61
2023-04-12T19:31:47.360Z,10.59
2023-04-12T19:34:17.752Z,10.48
2023-04-12T19:36:46.406Z,10.38
2023-04-12T19:39:15.568Z,10.38
2023-04-12T19:41:44.042Z,10.48
2023-04-12T19:44:14.117Z,10.49
2023-04-12T19:46:42.485Z,10.31
2023-04-12T19:49:10.815Z,10.52
2023-04-12T19:51:39.128Z,10.28
2023-04-12T19:54:09.940Z,10.29
2023-04-12T19:56:38.329Z,10.50
2023-04-12T19:59:06.771Z,10.39
2023-04-12T20:01:43.009Z,10.36
2023-04-12T20:04:12.790Z,10.43
2023-04-12T20:06:41.453Z,10.40
2023-04-12T20:09:13.215Z,10.22
2023-04-12T20:11:42.186Z,10.14
2023-04-12T20:14:10.451Z,10.16
2023-04-12T20:16:42.653Z,10.13
2023-04-12T20:19:11.957Z,10.17
2023-04-12T20:21:40.582Z,10.05
2023-04-12T20:24:09.034Z,9.90
2023-04-12T20:26:37.377Z,10.11
2023-04-12T20:29:06.845Z,10.23
2023-04-12T20:31:35.213Z,9.92
2023-04-12T20:34:06.261Z,10.00
2023-04-12T20:36:34.572Z,10.06
2023-04-12T20:39:29.485Z,9.89
2023-04-12T20:42:00.936Z,10.08
2023-04-12T20:44:28.796Z,10.04
2023-04-12T20:46:58.374Z,9.96
2023-04-12T20:49:27.526Z,10.01
2023-04-12T20:52:21.129Z,9.84
2023-04-12T20:54:49.628Z,10.01
2023-04-12T20:57:19.634Z,9.82
2023-04-12T20:59:48.213Z,9.94
2023-04-12T21:02:17.991Z,9.86
2023-04-12T21:04:47.313Z,9.86
2023-04-12T21:07:16.085Z,9.98
2023-04-12T21:09:44.394Z,9.91
2023-04-12T21:12:12.622Z,9.94
2023-04-12T21:14:41.030Z,9.84
2023-04-12T21:17:09.320Z,9.79
2023-04-12T21:19:39.265Z,9.68
2023-04-12T21:22:08.354Z,9.58
2023-04-12T21:24:38.587Z,9.42
2023-04-12T21:27:08.397Z,9.48
2023-04-12T21:29:40.891Z,9.50
2023-04-12T21:32:11.970Z,9.27
2023-04-12T21:34:40.304Z,9.35
2023-04-12T21:37:08.975Z,9.35
2023-04-12T21:39:39.276Z,9.39
2023-04-12T21:42:07.722Z,9.50
2023-04-12T21:44:36.411Z,9.51
2023-04-12T21:47:04.660Z,9.50
2023-04-12T21:49:36.281Z,9.23
2023-04-12T21:52:04.910Z,9.44
2023-04-12T21:54:36.767Z,9.35
2023-04-12T21:57:06.133Z,9.32
2023-04-12T21:59:34.441Z,9.30
2023-04-12T22:02:03.159Z,9.04
2023-04-12T22:04:32.862Z,9.15
2023-04-12T22:07:05.346Z,9.46
2023-04-12T22:09:33.707Z,9.56
2023-04-12T22:12:02.143Z,9.58
2023-04-12T22:14:30.384Z,9.56
2023-04-12T22:16:59.042Z,9.50
2023-04-12T22:19:27.309Z,9.42
2023-04-12T22:21:55.777Z,9.31
2023-04-12T22:24:25.338Z,9.31
2023-04-12T22:26:57.277Z,9.23
2023-04-12T22:29:25.958Z,9.12
2023-04-12T22:31:55.494Z,9.04
2023-04-12T22:34:25.781Z,9.00
2023-04-12T22:36:58.679Z,8.92
2023-04-12T22:39:27.240Z,8.86
2023-04-12T22:41:57.146Z,8.81
2023-04-12T22:44:26.904Z,8.72
2023-04-12T22:46:56.687Z,8.66
2023-04-12T22:49:29.293Z,8.63
2023-04-12T22:51:58.069Z,8.56
2023-04-12T22:54:26.477Z,8.48
2023-04-12T22:56:54.737Z,8.46
2023-04-12T22:59:23.812Z,8.43
2023-04-12T23:01:52.176Z,8.36
2023-04-12T23:04:20.605Z,8.30
2023-04-12T23:06:50.635Z,8.25
2023-04-12T23:09:19.610Z,8.21
2023-04-12T23:11:47.947Z,8.15
2023-04-12T23:14:17.714Z,8.13
2023-04-12T23:16:46.387Z,8.10
2023-04-12T23:19:14.970Z,8.02
2023-04-12T23:21:44.207Z,8.03
2023-04-12T23:24:15.272Z,7.98
2023-04-12T23:26:45.317Z,7.96
2023-04-12T23:29:14.024Z,7.91
2023-04-12T23:31:42.821Z,7.87
2023-04-12T23:34:11.124Z,7.83
2023-04-12T23:36:39.433Z,7.79
2023-04-12T23:39:09.396Z,7.77
2023-04-12T23:42:03.186Z,7.76
2023-04-12T23:44:31.591Z,7.73
2023-04-12T23:46:59.894Z,7.74
2023-04-12T23:49:28.149Z,7.70
2023-04-12T23:51:58.493Z,7.68
2023-04-12T23:54:27.134Z,7.73
2023-04-12T23:56:55.916Z,7.71
2023-04-12T23:59:25.327Z,7.68
